createdAt,value
2024-01-25T00:02:37.474Z,100220.25
2024-01-25T00:05:40.891Z,100222.97
2024-01-25T00:08:45.445Z,100221.06
2024-01-25T00:11:51.453Z,100218.03
2024-01-25T00:14:56.158Z,100230.41
2024-01-25T00:17:59.520Z,100233.00
2024-01-25T00:21:04.000Z,100226.81
2024-01-25T00:24:08.549Z,100228.28
2024-01-25T00:27:11.736Z,100226.25
2024-01-25T00:30:18.942Z,100228.75
2024-01-25T00:33:22.128Z,100226.63
2024-01-25T00:36:26.630Z,100229.53
2024-01-25T00:39:30.057Z,100230.53
2024-01-25T00:42:57.034Z,100224.69
2024-01-25T00:46:01.780Z,100228.84
2024-01-25T00:49:05.541Z,100219.06
2024-01-25T00:52:09.745Z,100220.97
2024-01-25T00:55:14.341Z,100214.91
2024-01-25T00:58:19.161Z,100209.63
2024-01-25T01:01:24.385Z,100213.00
2024-01-25T01:04:31.111Z,100215.34
2024-01-25T01:07:35.061Z,100223.00
2024-01-25T01:10:38.177Z,100229.16
2024-01-25T01:13:43.162Z,100225.56
2024-01-25T01:16:46.253Z,100231.75
2024-01-25T01:19:54.584Z,100224.09
2024-01-25T01:22:57.997Z,100226.03
2024-01-25T01:26:04.348Z,100231.50
2024-01-25T01:29:07.332Z,100229.38
2024-01-25T01:32:10.595Z,100233.44
2024-01-25T01:35:13.399Z,100236.47
2024-01-25T01:38:16.807Z,100241.31
2024-01-25T01:41:19.638Z,100250.28
2024-01-25T01:44:23.037Z,100240.84
2024-01-25T01:47:26.203Z,100260.75
2024-01-25T01:50:30.029Z,100255.34
2024-01-25T01:53:34.783Z,100255.25
2024-01-25T01:56:43.573Z,100253.56
2024-01-25T01:59:48.260Z,100259.50
2024-01-25T02:02:51.778Z,100253.44
2024-01-25T02:05:56.269Z,100255.38
2024-01-25T02:09:00.134Z,100262.09
2024-01-25T02:12:04.309Z,100248.84
2024-01-25T02:15:07.507Z,100247.84
2024-01-25T02:18:11.352Z,100247.78
2024-01-25T02:21:16.086Z,100244.56
2024-01-25T02:24:19.410Z,100249.28
2024-01-25T02:27:23.084Z,100242.75
2024-01-25T02:30:26.667Z,100233.09
2024-01-25T02:33:30.019Z,100222.53
2024-01-25T02:36:33.606Z,100216.47
2024-01-25T02:39:36.759Z,100208.69
2024-01-25T02:42:40.627Z,100216.00
2024-01-25T02:45:44.894Z,100210.97
2024-01-25T02:48:48.722Z,100215.25
2024-01-25T02:51:52.149Z,100208.84
2024-01-25T02:54:55.726Z,100215.12
2024-01-25T02:57:59.038Z,100207.59
2024-01-25T03:01:03.713Z,100217.97
2024-01-25T03:04:09.116Z,100222.31
2024-01-25T03:07:12.855Z,100223.78
2024-01-25T03:10:16.010Z,100224.34
2024-01-25T03:13:20.808Z,100225.03
2024-01-25T03:16:23.930Z,100228.41
2024-01-25T03:19:28.861Z,100227.03
2024-01-25T03:22:33.194Z,100224.66
2024-01-25T03:25:36.524Z,100221.44
2024-01-25T03:28:41.458Z,100229.41
2024-01-25T03:31:47.643Z,100227.25
2024-01-25T03:34:50.888Z,100223.00
2024-01-25T03:37:54.400Z,100222.44
2024-01-25T03:41:00.122Z,100222.00
2024-01-25T03:44:04.634Z,100217.03
2024-01-25T03:47:07.646Z,100216.94
2024-01-25T03:50:11.214Z,100215.72
2024-01-25T03:53:14.736Z,100219.31
2024-01-25T03:56:20.945Z,100224.03
2024-01-25T03:59:24.024Z,100222.31
2024-01-25T04:02:28.119Z,100214.78
2024-01-25T04:05:31.584Z,100212.22
2024-01-25T04:08:34.811Z,100206.94
2024-01-25T04:11:38.948Z,100218.62
2024-01-25T04:14:42.912Z,100211.22
2024-01-25T04:17:46.250Z,100213.22
2024-01-25T04:20:50.935Z,100223.25
2024-01-25T04:23:55.583Z,100224.34
2024-01-25T04:26:58.658Z,100212.56
2024-01-25T04:30:04.967Z,100213.34
2024-01-25T04:33:08.168Z,100204.13
2024-01-25T04:36:11.892Z,100209.75
2024-01-25T04:39:15.463Z,100216.13
2024-01-25T04:42:19.306Z,100218.84
2024-01-25T04:45:22.370Z,100216.03
2024-01-25T04:48:25.821Z,100219.63
2024-01-25T04:51:29.293Z,100228.84
2024-01-25T04:54:32.644Z,100223.44
2024-01-25T04:57:35.820Z,100215.59
2024-01-25T05:00:41.353Z,100223.81
2024-01-25T05:03:45.438Z,100226.16
2024-01-25T05:06:49.028Z,100234.69
2024-01-25T05:09:53.581Z,100226.59
2024-01-25T05:12:58.444Z,100237.25
2024-01-25T05:16:04.595Z,100221.97
2024-01-25T05:19:08.135Z,100229.72
2024-01-25T05:22:11.544Z,100231.72
2024-01-25T05:25:14.969Z,100231.88
2024-01-25T05:28:18.086Z,100250.78
2024-01-25T05:31:21.763Z,100254.06
2024-01-25T05:34:26.272Z,100253.97
2024-01-25T05:37:29.785Z,100252.06
2024-01-25T05:40:32.965Z,100247.66
2024-01-25T05:43:36.321Z,100251.03
2024-01-25T05:46:40.303Z,100258.38
2024-01-25T05:49:43.789Z,100273.28
2024-01-25T05:52:47.016Z,100273.84
2024-01-25T05:55:50.486Z,100268.38
2024-01-25T05:58:56.031Z,100270.97
2024-01-25T06:02:02.385Z,100268.47
2024-01-25T06:05:06.140Z,100271.84
2024-01-25T06:08:09.531Z,100259.97
2024-01-25T06:11:12.889Z,100253.87
2024-01-25T06:14:16.502Z,100251.16
2024-01-25T06:17:19.806Z,100258.78
2024-01-25T06:20:23.009Z,100258.78
2024-01-25T06:23:26.664Z,100255.56
2024-01-25T06:26:29.691Z,100256.25
2024-01-25T06:29:33.069Z,100262.53
2024-01-25T06:32:38.369Z,100262.31
2024-01-25T06:35:41.794Z,100268.06
2024-01-25T06:38:46.839Z,100266.97
2024-01-25T06:41:50.083Z,100269.19
2024-01-25T06:44:53.787Z,100269.09
2024-01-25T06:47:59.990Z,100273.00
2024-01-25T06:51:03.558Z,100274.25
2024-01-25T06:54:07.259Z,100273.91
2024-01-25T06:57:11.572Z,100266.75
2024-01-25T07:00:19.818Z,100270.78
2024-01-25T07:03:25.598Z,100261.09
2024-01-25T07:06:31.871Z,100253.22
2024-01-25T07:09:34.968Z,100236.56
2024-01-25T07:12:38.344Z,100229.63
2024-01-25T07:15:42.651Z,100218.28
2024-01-25T07:18:47.580Z,100212.38
2024-01-25T07:21:51.278Z,100223.53
2024-01-25T07:24:54.893Z,100199.16
2024-01-25T07:28:01.226Z,100215.59
2024-01-25T07:31:05.733Z,100191.19
2024-01-25T07:34:08.884Z,100214.34
2024-01-25T07:37:13.746Z,100200.53
2024-01-25T07:40:16.859Z,100196.94
2024-01-25T07:43:20.234Z,100200.84
2024-01-25T07:46:25.484Z,100197.50
2024-01-25T07:49:29.386Z,100197.47
2024-01-25T07:52:32.928Z,100190.19
2024-01-25T07:55:36.447Z,100196.81
2024-01-25T07:58:40.826Z,100191.19
2024-01-25T08:01:44.239Z,100179.84
2024-01-25T08:04:49.202Z,100185.34
2024-01-25T08:07:52.975Z,100212.44
2024-01-25T08:10:56.389Z,100201.31
2024-01-25T08:13:59.801Z,100196.47
2024-01-25T08:17:04.261Z,100194.00
2024-01-25T08:20:10.394Z,100191.44
2024-01-25T08:23:15.762Z,100186.69
2024-01-25T08:26:20.271Z,100194.78
2024-01-25T08:29:23.606Z,100206.25
2024-01-25T08:32:27.541Z,100189.37
2024-01-25T08:35:34.263Z,100188.84
2024-01-25T08:38:38.714Z,100215.59
2024-01-25T08:41:43.600Z,100228.94
2024-01-25T08:44:50.801Z,100229.28
2024-01-25T08:47:57.474Z,100224.78
2024-01-25T08:51:01.349Z,100208.59
2024-01-25T08:54:05.132Z,100221.03
2024-01-25T08:57:08.161Z,100235.09
2024-01-25T09:00:12.061Z,100255.62
2024-01-25T09:03:18.164Z,100248.06
2024-01-25T09:06:21.728Z,100234.69
2024-01-25T09:09:24.906Z,100210.37
2024-01-25T09:12:29.906Z,100261.81
2024-01-25T09:15:33.064Z,100232.69
2024-01-25T09:18:36.641Z,100212.72
2024-01-25T09:21:42.237Z,100208.00
2024-01-25T09:24:46.122Z,100236.41
2024-01-25T09:27:49.893Z,100243.69
2024-01-25T09:30:54.092Z,100245.88
2024-01-25T09:34:00.776Z,100259.41
2024-01-25T09:37:05.016Z,100262.72
2024-01-25T09:40:09.207Z,100264.03
2024-01-25T09:43:13.616Z,100274.56
2024-01-25T09:46:17.370Z,100270.47
2024-01-25T09:49:22.203Z,100265.28
2024-01-25T09:52:29.042Z,100287.28
2024-01-25T09:55:34.568Z,100273.06
2024-01-25T09:58:43.945Z,100291.47
2024-01-25T10:01:50.048Z,100296.69
2024-01-25T10:04:56.845Z,100292.62
2024-01-25T10:08:02.926Z,100291.41
2024-01-25T10:11:07.418Z,100292.69
2024-01-25T10:14:10.488Z,100297.97
2024-01-25T10:17:14.070Z,100296.03
2024-01-25T10:20:18.464Z,100283.31
2024-01-25T10:23:23.891Z,100284.63
2024-01-25T10:26:31.775Z,100328.28
2024-01-25T10:29:36.078Z,100291.84
2024-01-25T10:32:44.574Z,100316.13
2024-01-25T10:35:51.665Z,100306.34
2024-01-25T10:38:56.259Z,100313.22
2024-01-25T10:42:02.961Z,100305.03
2024-01-25T10:45:06.905Z,100277.63
2024-01-25T10:48:10.211Z,100280.53
2024-01-25T10:51:19.881Z,100270.09
2024-01-25T10:54:23.441Z,100298.84
2024-01-25T10:57:27.420Z,100272.28
2024-01-25T11:00:32.960Z,100306.97
2024-01-25T11:03:37.449Z,100259.56
2024-01-25T11:06:40.934Z,100270.75
2024-01-25T11:09:49.718Z,100275.00
2024-01-25T11:12:58.668Z,100254.22
2024-01-25T11:16:17.937Z,100241.22
2024-01-25T11:19:22.899Z,100261.56
2024-01-25T11:22:35.536Z,100265.03
2024-01-25T11:25:39.386Z,100284.50
2024-01-25T11:28:46.398Z,100234.94
2024-01-25T11:31:53.169Z,100228.72
2024-01-25T11:35:03.121Z,100234.97
2024-01-25T11:38:06.449Z,100220.97
2024-01-25T11:41:10.726Z,100224.56
2024-01-25T11:44:14.978Z,100223.19
2024-01-25T11:47:26.856Z,100220.81
2024-01-25T11:50:31.982Z,100198.97
2024-01-25T11:53:35.845Z,100216.50
2024-01-25T11:56:43.532Z,100203.22
2024-01-25T11:59:48.987Z,100207.44
2024-01-25T12:02:54.417Z,100199.72
2024-01-25T12:06:00.541Z,100198.94
2024-01-25T12:09:11.056Z,100214.72
2024-01-25T12:12:17.466Z,100205.63
2024-01-25T12:15:21.557Z,100205.72
2024-01-25T12:18:25.014Z,100199.97
2024-01-25T12:21:28.700Z,100217.13
2024-01-25T12:24:35.469Z,100206.19
2024-01-25T12:27:42.399Z,100214.50
2024-01-25T12:30:45.886Z,100219.97
2024-01-25T12:33:48.917Z,100230.78
2024-01-25T12:36:57.198Z,100246.31
2024-01-25T12:40:02.345Z,100236.38
2024-01-25T12:43:05.990Z,100246.16
2024-01-25T12:46:18.354Z,100234.38
2024-01-25T12:49:30.061Z,100252.41
2024-01-25T12:52:33.704Z,100241.31
2024-01-25T12:55:38.853Z,100258.09
2024-01-25T12:58:42.116Z,100253.00
2024-01-25T13:01:45.816Z,100265.94
2024-01-25T13:04:49.313Z,100239.78
2024-01-25T13:07:53.294Z,100251.00
2024-01-25T13:10:56.510Z,100248.97
2024-01-25T13:14:02.670Z,100272.41
2024-01-25T13:17:05.868Z,100245.53
2024-01-25T13:20:09.786Z,100245.38
2024-01-25T13:23:12.791Z,100255.22
2024-01-25T13:26:16.127Z,100261.88
2024-01-25T13:29:19.137Z,100267.00
2024-01-25T13:32:23.960Z,100256.53
2024-01-25T13:35:27.244Z,100260.31
2024-01-25T13:38:30.824Z,100241.31
2024-01-25T13:41:34.457Z,100265.75
2024-01-25T13:44:39.764Z,100267.84
2024-01-25T13:47:45.803Z,100255.06
2024-01-25T13:50:49.788Z,100261.19
2024-01-25T13:53:52.998Z,100253.31
2024-01-25T13:56:56.965Z,100253.16
2024-01-25T14:00:00.003Z,100268.06
2024-01-25T14:03:06.853Z,100264.81
2024-01-25T14:06:13.983Z,100266.38
2024-01-25T14:09:17.443Z,100294.87
2024-01-25T14:12:21.118Z,100284.13
2024-01-25T14:15:25.797Z,100281.50
2024-01-25T14:18:31.393Z,100277.25
2024-01-25T14:21:34.455Z,100289.00
2024-01-25T14:24:38.711Z,100275.47
2024-01-25T14:27:42.701Z,100281.81
2024-01-25T14:30:47.561Z,100284.25
2024-01-25T14:33:50.971Z,100283.06
2024-01-25T14:36:54.830Z,100286.94
2024-01-25T14:40:09.065Z,100286.44
2024-01-25T14:43:22.304Z,100291.00
2024-01-25T14:46:25.374Z,100282.50
2024-01-25T14:49:31.814Z,100299.03
2024-01-25T14:52:35.383Z,100294.34
2024-01-25T14:55:39.618Z,100299.88
2024-01-25T14:58:44.986Z,100293.72
2024-01-25T15:01:50.122Z,100312.50
2024-01-25T15:04:53.333Z,100302.75
2024-01-25T15:07:57.957Z,100301.34
2024-01-25T15:11:01.406Z,100301.37
2024-01-25T15:14:05.619Z,100301.78
2024-01-25T15:17:08.753Z,100309.78
2024-01-25T15:20:12.492Z,100309.38
2024-01-25T15:23:15.626Z,100314.72
2024-01-25T15:26:19.146Z,100314.91
2024-01-25T15:29:22.201Z,100305.91
2024-01-25T15:32:25.589Z,100304.34
2024-01-25T15:35:28.541Z,100320.56
2024-01-25T15:38:32.096Z,100320.22
2024-01-25T15:41:35.067Z,100308.78
2024-01-25T15:44:38.504Z,100321.13
2024-01-25T15:47:43.571Z,100315.97
2024-01-25T15:50:47.150Z,100318.78
2024-01-25T15:53:50.921Z,100317.78
2024-01-25T15:56:54.276Z,100330.59
2024-01-25T15:59:57.354Z,100322.16
2024-01-25T16:03:01.384Z,100317.09
2024-01-25T16:06:05.009Z,100329.59
2024-01-25T16:09:08.168Z,100331.81
2024-01-25T16:12:12.418Z,100331.94
2024-01-25T16:15:15.598Z,100333.50
2024-01-25T16:18:19.361Z,100324.87
2024-01-25T16:21:24.451Z,100333.16
2024-01-25T16:24:29.650Z,100334.41
2024-01-25T16:27:35.580Z,100337.31
2024-01-25T16:30:39.079Z,100350.69
2024-01-25T16:33:42.294Z,100342.22
2024-01-25T16:36:45.804Z,100341.09
2024-01-25T16:39:49.113Z,100339.41
2024-01-25T16:42:52.572Z,100356.81
2024-01-25T16:45:55.811Z,100353.69
2024-01-25T16:48:59.394Z,100352.22
2024-01-25T16:52:02.504Z,100340.00
2024-01-25T16:55:06.312Z,100344.91
2024-01-25T16:58:09.517Z,100338.78
2024-01-25T17:01:13.067Z,100340.16
2024-01-25T17:04:16.890Z,100342.13
2024-01-25T17:07:20.307Z,100341.94
2024-01-25T17:10:24.180Z,100345.84
2024-01-25T17:13:27.520Z,100334.31
2024-01-25T17:16:30.594Z,100343.31
2024-01-25T17:19:34.197Z,100326.47
2024-01-25T17:22:37.912Z,100340.06
2024-01-25T17:25:42.707Z,100329.28
2024-01-25T17:28:45.879Z,100329.97
2024-01-25T17:31:49.522Z,100337.88
2024-01-25T17:34:52.759Z,100338.28
2024-01-25T17:37:56.772Z,100336.00
2024-01-25T17:41:00.017Z,100334.16
2024-01-25T17:44:03.519Z,100339.00
2024-01-25T17:47:06.889Z,100340.25
2024-01-25T17:50:13.327Z,100350.38
2024-01-25T17:53:18.770Z,100358.28
2024-01-25T17:56:22.650Z,100343.44
2024-01-25T17:59:28.398Z,100359.44
2024-01-25T18:02:32.483Z,100356.03
2024-01-25T18:05:36.548Z,100362.72
2024-01-25T18:08:40.326Z,100377.38
2024-01-25T18:11:46.543Z,100361.75
2024-01-25T18:14:49.945Z,100365.22
2024-01-25T18:17:53.956Z,100360.16
2024-01-25T18:20:57.775Z,100368.97
2024-01-25T18:24:03.004Z,100363.63
2024-01-25T18:27:07.097Z,100354.12
2024-01-25T18:30:15.455Z,100363.72
2024-01-25T18:33:19.718Z,100353.94
2024-01-25T18:36:24.243Z,100359.50
2024-01-25T18:39:32.916Z,100360.03
2024-01-25T18:42:44.737Z,100364.81
2024-01-25T18:45:53.879Z,100373.44
2024-01-25T18:49:00.644Z,100363.50
2024-01-25T18:52:10.808Z,100376.63
2024-01-25T18:55:16.834Z,100378.88
2024-01-25T18:58:23.410Z,100378.53
2024-01-25T19:01:31.538Z,100370.56
2024-01-25T19:04:40.013Z,100371.69
2024-01-25T19:07:49.463Z,100371.53
2024-01-25T19:10:57.420Z,100371.66
2024-01-25T19:14:07.082Z,100365.06
2024-01-25T19:17:14.798Z,100352.00
2024-01-25T19:20:20.602Z,100358.16
2024-01-25T19:23:25.723Z,100358.16
2024-01-25T19:26:32.180Z,100349.97
2024-01-25T19:29:37.404Z,100348.56
2024-01-25T19:32:42.725Z,100337.00
2024-01-25T19:35:53.318Z,100326.56
2024-01-25T19:39:00.420Z,100320.72
2024-01-25T19:42:05.078Z,100316.75
2024-01-25T19:45:10.707Z,100330.34
2024-01-25T19:48:34.390Z,100316.13
2024-01-25T19:51:41.660Z,100313.16
2024-01-25T19:54:48.591Z,100310.66
2024-01-25T19:57:59.495Z,100332.66
2024-01-25T20:01:07.566Z,100336.81
2024-01-25T20:04:13.120Z,100357.81
2024-01-25T20:07:19.025Z,100342.69
2024-01-25T20:10:25.244Z,100339.16
2024-01-25T20:13:30.590Z,100351.00
2024-01-25T20:16:42.220Z,100337.03
2024-01-25T20:19:48.285Z,100330.88
2024-01-25T20:22:54.041Z,100349.19
2024-01-25T20:25:59.315Z,100337.19
2024-01-25T20:29:04.800Z,100331.00
2024-01-25T20:32:09.683Z,100340.62
2024-01-25T20:35:15.295Z,100349.34
2024-01-25T20:38:20.181Z,100348.97
2024-01-25T20:41:26.125Z,100355.59
2024-01-25T20:44:33.188Z,100347.53
2024-01-25T20:47:38.188Z,100359.13
2024-01-25T20:50:42.636Z,100365.41
2024-01-25T20:53:54.036Z,100367.16
2024-01-25T20:57:04.779Z,100372.75
2024-01-25T21:00:10.747Z,100374.53
2024-01-25T21:03:15.851Z,100377.06
2024-01-25T21:06:22.540Z,100377.84
2024-01-25T21:09:26.121Z,100377.06
2024-01-25T21:12:31.027Z,100382.09
2024-01-25T21:15:34.858Z,100388.00
2024-01-25T21:18:38.382Z,100394.03
2024-01-25T21:21:41.687Z,100390.06
2024-01-25T21:24:45.082Z,100388.50
2024-01-25T21:27:48.177Z,100394.38
2024-01-25T21:30:51.623Z,100381.78
2024-01-25T21:33:56.700Z,100381.28
2024-01-25T21:37:01.857Z,100383.88
2024-01-25T21:40:07.499Z,100372.94
2024-01-25T21:43:12.363Z,100365.34
2024-01-25T21:46:15.690Z,100376.16
2024-01-25T21:49:20.636Z,100375.53
2024-01-25T21:52:25.118Z,100381.38
2024-01-25T21:55:28.402Z,100385.38
2024-01-25T21:58:31.442Z,100405.59
2024-01-25T22:01:35.395Z,100376.69
2024-01-25T22:04:40.770Z,100369.72
2024-01-25T22:07:44.037Z,100375.91
2024-01-25T22:10:47.602Z,100378.41
2024-01-25T22:13:54.971Z,100382.22
2024-01-25T22:16:58.293Z,100385.56
2024-01-25T22:20:01.500Z,100385.53
2024-01-25T22:23:07.141Z,100408.00
2024-01-25T22:26:11.680Z,100404.22
2024-01-25T22:29:15.011Z,100414.81
2024-01-25T22:32:18.054Z,100423.19
2024-01-25T22:35:21.394Z,100430.47
2024-01-25T22:38:24.694Z,100432.34
2024-01-25T22:41:28.754Z,100446.44
2024-01-25T22:44:31.706Z,100447.37
2024-01-25T22:47:35.205Z,100457.50
2024-01-25T22:50:38.301Z,100460.19
2024-01-25T22:53:41.635Z,100462.41
2024-01-25T22:56:46.387Z,100463.81
2024-01-25T22:59:50.924Z,100468.88
2024-01-25T23:02:57.105Z,100464.28
2024-01-25T23:06:00.586Z,100478.97
2024-01-25T23:09:05.728Z,100470.59
2024-01-25T23:12:09.977Z,100466.00
2024-01-25T23:15:13.200Z,100471.03
2024-01-25T23:18:16.894Z,100470.28
2024-01-25T23:21:23.010Z,100478.31
2024-01-25T23:24:26.420Z,100471.22
2024-01-25T23:27:29.574Z,100479.25
2024-01-25T23:30:32.922Z,100486.50
2024-01-25T23:33:36.143Z,100472.28
2024-01-25T23:36:39.621Z,100482.91
2024-01-25T23:39:44.465Z,100472.59
2024-01-25T23:42:48.218Z,100474.19
2024-01-25T23:45:52.361Z,100476.50
2024-01-25T23:48:57.440Z,100472.06
2024-01-25T23:52:00.856Z,100470.16
2024-01-25T23:55:04.550Z,100469.69
2024-01-25T23:58:07.868Z,100467.94
